sensor_id;sensor_type;location;lat;lon;timestamp;pressure;altitude;pressure_sealevel;temperature;humidity
81511;BME280;70931;48.796;8.440;2023-08-07T00:01:10;97168.09;;;11.52;81.76
81511;BME280;70931;48.796;8.440;2023-08-07T00:03:35;97184.72;;;11.62;82.27
81511;BME280;70931;48.796;8.440;2023-08-07T00:06:00;97152.78;;;11.46;81.94
81511;BME280;70931;48.796;8.440;2023-08-07T00:08:26;97183.72;;;11.63;82.69
81511;BME280;70931;48.796;8.440;2023-08-07T00:10:51;97170.00;;;11.66;81.78
81511;BME280;70931;48.796;8.440;2023-08-07T00:13:16;97156.06;;;11.56;81.23
81511;BME280;70931;48.796;8.440;2023-08-07T00:15:41;97171.06;;;11.57;81.55
81511;BME280;70931;48.796;8.440;2023-08-07T00:18:07;97168.81;;;11.69;82.30
81511;BME280;70931;48.796;8.440;2023-08-07T00:20:32;97165.38;;;11.60;81.15
81511;BME280;70931;48.796;8.440;2023-08-07T00:22:57;97175.34;;;11.66;80.13
81511;BME280;70931;48.796;8.440;2023-08-07T00:25:22;97182.66;;;11.72;80.20
81511;BME280;70931;48.796;8.440;2023-08-07T00:27:48;97171.34;;;11.70;80.22
81511;BME280;70931;48.796;8.440;2023-08-07T00:30:14;97164.81;;;11.73;80.25
81511;BME280;70931;48.796;8.440;2023-08-07T00:32:39;97190.69;;;11.72;80.77
81511;BME280;70931;48.796;8.440;2023-08-07T00:35:05;97152.28;;;11.65;80.49
81511;BME280;70931;48.796;8.440;2023-08-07T00:37:30;97143.28;;;11.66;79.75
81511;BME280;70931;48.796;8.440;2023-08-07T00:39:56;97180.56;;;11.82;80.38
81511;BME280;70931;48.796;8.440;2023-08-07T00:42:21;97174.31;;;11.75;80.55
81511;BME280;70931;48.796;8.440;2023-08-07T00:44:46;97182.44;;;11.82;80.94
81511;BME280;70931;48.796;8.440;2023-08-07T00:47:11;97183.91;;;11.84;80.53
81511;BME280;70931;48.796;8.440;2023-08-07T00:49:37;97180.88;;;11.87;80.63
81511;BME280;70931;48.796;8.440;2023-08-07T00:52:02;97181.31;;;11.76;78.65
81511;BME280;70931;48.796;8.440;2023-08-07T00:54:28;97189.97;;;11.78;79.73
81511;BME280;70931;48.796;8.440;2023-08-07T00:56:54;97177.88;;;11.60;80.15
81511;BME280;70931;48.796;8.440;2023-08-07T00:59:19;97197.69;;;11.65;79.65
81511;BME280;70931;48.796;8.440;2023-08-07T01:01:45;97192.56;;;11.86;78.48
81511;BME280;70931;48.796;8.440;2023-08-07T01:04:10;97185.81;;;11.76;79.27
81511;BME280;70931;48.796;8.440;2023-08-07T01:06:35;97180.63;;;11.74;80.03
81511;BME280;70931;48.796;8.440;2023-08-07T01:09:00;97178.94;;;11.81;79.61
81511;BME280;70931;48.796;8.440;2023-08-07T01:11:46;97175.88;;;11.62;78.72
81511;BME280;70931;48.796;8.440;2023-08-07T01:14:36;97172.03;;;11.64;81.10
81511;BME280;70931;48.796;8.440;2023-08-07T01:17:14;97179.00;;;11.65;78.97
81511;BME280;70931;48.796;8.440;2023-08-07T01:19:40;97155.38;;;11.54;79.30
81511;BME280;70931;48.796;8.440;2023-08-07T01:22:10;97191.16;;;11.76;79.20
81511;BME280;70931;48.796;8.440;2023-08-07T01:24:37;97185.00;;;11.75;80.32
81511;BME280;70931;48.796;8.440;2023-08-07T01:32:43;97201.22;;;11.66;80.04
81511;BME280;70931;48.796;8.440;2023-08-07T01:35:14;97188.41;;;11.61;78.93
81511;BME280;70931;48.796;8.440;2023-08-07T01:37:41;97222.13;;;11.62;77.81
81511;BME280;70931;48.796;8.440;2023-08-07T01:40:08;97207.34;;;11.74;78.70
81511;BME280;70931;48.796;8.440;2023-08-07T01:42:33;97208.13;;;11.83;77.84
81511;BME280;70931;48.796;8.440;2023-08-07T01:44:59;97197.34;;;11.76;79.38
81511;BME280;70931;48.796;8.440;2023-08-07T01:47:25;97214.03;;;11.78;78.89
81511;BME280;70931;48.796;8.440;2023-08-07T01:49:50;97221.28;;;11.62;79.68
81511;BME280;70931;48.796;8.440;2023-08-07T01:52:15;97205.06;;;11.63;78.70
81511;BME280;70931;48.796;8.440;2023-08-07T01:54:41;97221.91;;;11.72;79.19
81511;BME280;70931;48.796;8.440;2023-08-07T01:57:06;97220.47;;;11.61;78.93
81511;BME280;70931;48.796;8.440;2023-08-07T01:59:31;97210.25;;;11.65;78.97
81511;BME280;70931;48.796;8.440;2023-08-07T02:01:56;97224.78;;;11.70;80.94
81511;BME280;70931;48.796;8.440;2023-08-07T02:04:22;97218.13;;;11.58;77.91
81511;BME280;70931;48.796;8.440;2023-08-07T02:06:47;97219.28;;;11.86;78.45
81511;BME280;70931;48.796;8.440;2023-08-07T02:09:12;97209.59;;;11.71;78.69
81511;BME280;70931;48.796;8.440;2023-08-07T02:11:37;97222.13;;;11.62;79.26
81511;BME280;70931;48.796;8.440;2023-08-07T02:14:02;97227.25;;;11.72;79.41
81511;BME280;70931;48.796;8.440;2023-08-07T02:16:28;97227.38;;;11.78;80.01
81511;BME280;70931;48.796;8.440;2023-08-07T02:18:53;97213.09;;;11.63;80.20
81511;BME280;70931;48.796;8.440;2023-08-07T02:21:18;97217.97;;;11.82;78.90
81511;BME280;70931;48.796;8.440;2023-08-07T02:23:43;97218.25;;;11.73;79.19
81511;BME280;70931;48.796;8.440;2023-08-07T02:26:09;97225.03;;;11.53;79.19
81511;BME280;70931;48.796;8.440;2023-08-07T02:28:34;97191.84;;;11.47;79.33
81511;BME280;70931;48.796;8.440;2023-08-07T02:31:00;97226.16;;;11.58;79.31
81511;BME280;70931;48.796;8.440;2023-08-07T02:33:25;97217.09;;;11.67;79.77
81511;BME280;70931;48.796;8.440;2023-08-07T02:35:50;97226.50;;;11.55;79.42
81511;BME280;70931;48.796;8.440;2023-08-07T02:38:15;97204.50;;;11.53;80.20
81511;BME280;70931;48.796;8.440;2023-08-07T02:40:41;97223.78;;;11.63;78.94
81511;BME280;70931;48.796;8.440;2023-08-07T02:43:06;97227.00;;;11.59;79.84
81511;BME280;70931;48.796;8.440;2023-08-07T02:45:31;97219.31;;;11.56;78.88
81511;BME280;70931;48.796;8.440;2023-08-07T02:47:57;97192.91;;;11.38;79.69
81511;BME280;70931;48.796;8.440;2023-08-07T02:50:22;97220.03;;;11.50;81.21
81511;BME280;70931;48.796;8.440;2023-08-07T02:52:47;97238.94;;;11.40;80.49
81511;BME280;70931;48.796;8.440;2023-08-07T02:55:12;97206.25;;;11.38;79.45
81511;BME280;70931;48.796;8.440;2023-08-07T02:57:38;97234.91;;;11.44;80.14
81511;BME280;70931;48.796;8.440;2023-08-07T03:00:03;97191.13;;;11.53;79.00
81511;BME280;70931;48.796;8.440;2023-08-07T03:02:29;97231.50;;;11.58;79.10
81511;BME280;70931;48.796;8.440;2023-08-07T03:04:54;97225.44;;;11.64;79.06
81511;BME280;70931;48.796;8.440;2023-08-07T03:07:19;97229.91;;;11.72;77.94
81511;BME280;70931;48.796;8.440;2023-08-07T03:09:48;97216.41;;;11.65;78.35
81511;BME280;70931;48.796;8.440;2023-08-07T03:12:13;97209.41;;;11.64;78.93
81511;BME280;70931;48.796;8.440;2023-08-07T03:14:38;97224.41;;;11.73;77.46
81511;BME280;70931;48.796;8.440;2023-08-07T03:17:04;97223.72;;;11.79;78.81
81511;BME280;70931;48.796;8.440;2023-08-07T03:19:29;97221.16;;;11.55;78.52
81511;BME280;70931;48.796;8.440;2023-08-07T03:21:54;97243.50;;;11.62;78.28
81511;BME280;70931;48.796;8.440;2023-08-07T03:24:19;97242.81;;;11.60;77.27
81511;BME280;70931;48.796;8.440;2023-08-07T03:26:45;97244.25;;;11.79;76.60
81511;BME280;70931;48.796;8.440;2023-08-07T03:29:10;97232.44;;;11.65;77.60
81511;BME280;70931;48.796;8.440;2023-08-07T03:31:35;97234.63;;;11.70;77.22
81511;BME280;70931;48.796;8.440;2023-08-07T03:34:00;97237.78;;;11.65;77.14
81511;BME280;70931;48.796;8.440;2023-08-07T03:36:25;97232.13;;;11.60;77.56
81511;BME280;70931;48.796;8.440;2023-08-07T03:38:51;97267.34;;;11.64;76.87
81511;BME280;70931;48.796;8.440;2023-08-07T03:41:16;97237.09;;;11.71;76.42
81511;BME280;70931;48.796;8.440;2023-08-07T03:43:41;97237.09;;;11.71;77.00
81511;BME280;70931;48.796;8.440;2023-08-07T03:46:06;97239.34;;;11.82;76.95
81511;BME280;70931;48.796;8.440;2023-08-07T03:48:32;97238.78;;;11.72;78.14
81511;BME280;70931;48.796;8.440;2023-08-07T03:51:04;97229.59;;;11.67;77.09
81511;BME280;70931;48.796;8.440;2023-08-07T03:53:30;97243.59;;;11.69;75.70
81511;BME280;70931;48.796;8.440;2023-08-07T03:55:55;97247.69;;;11.57;76.21
81511;BME280;70931;48.796;8.440;2023-08-07T03:58:20;97251.81;;;11.67;75.88
81511;BME280;70931;48.796;8.440;2023-08-07T04:00:46;97234.47;;;11.63;75.79
81511;BME280;70931;48.796;8.440;2023-08-07T04:03:11;97251.31;;;11.64;75.75
81511;BME280;70931;48.796;8.440;2023-08-07T04:05:36;97257.16;;;11.67;76.46
81511;BME280;70931;48.796;8.440;2023-08-07T04:08:01;97247.53;;;11.58;76.99
81511;BME280;70931;48.796;8.440;2023-08-07T04:10:27;97257.16;;;11.67;75.92
81511;BME280;70931;48.796;8.440;2023-08-07T04:12:52;97267.16;;;11.73;75.17
81511;BME280;70931;48.796;8.440;2023-08-07T04:15:17;97260.16;;;11.72;75.42
81511;BME280;70931;48.796;8.440;2023-08-07T04:17:42;97255.63;;;11.73;75.68
81511;BME280;70931;48.796;8.440;2023-08-07T04:20:08;97264.94;;;11.77;75.45
81511;BME280;70931;48.796;8.440;2023-08-07T04:22:33;97255.81;;;11.63;76.57
81511;BME280;70931;48.796;8.440;2023-08-07T04:24:59;97263.16;;;11.69;75.75
81511;BME280;70931;48.796;8.440;2023-08-07T04:27:24;97137.09;;;10.98;75.52
81511;BME280;70931;48.796;8.440;2023-08-07T04:29:49;97269.78;;;11.81;75.82
81511;BME280;70931;48.796;8.440;2023-08-07T04:32:14;97249.97;;;11.68;75.90
81511;BME280;70931;48.796;8.440;2023-08-07T04:34:39;97274.16;;;11.74;75.43
81511;BME280;70931;48.796;8.440;2023-08-07T04:37:05;97265.63;;;11.79;75.28
81511;BME280;70931;48.796;8.440;2023-08-07T04:39:30;97243.06;;;11.81;75.48
81511;BME280;70931;48.796;8.440;2023-08-07T04:41:55;97263.09;;;11.77;75.08
81511;BME280;70931;48.796;8.440;2023-08-07T04:44:20;97254.31;;;11.91;74.38
81511;BME280;70931;48.796;8.440;2023-08-07T04:46:46;97231.16;;;11.61;75.15
81511;BME280;70931;48.796;8.440;2023-08-07T04:49:11;97269.06;;;11.87;75.02
81511;BME280;70931;48.796;8.440;2023-08-07T04:51:36;97272.38;;;11.89;74.71
81511;BME280;70931;48.796;8.440;2023-08-07T04:54:01;97277.38;;;11.92;75.02
81511;BME280;70931;48.796;8.440;2023-08-07T04:56:27;97273.44;;;12.03;74.48
81511;BME280;70931;48.796;8.440;2023-08-07T04:58:52;97285.34;;;12.00;75.27
81511;BME280;70931;48.796;8.440;2023-08-07T05:01:17;97277.72;;;11.89;74.49
81511;BME280;70931;48.796;8.440;2023-08-07T05:03:42;97283.00;;;11.97;74.75
81511;BME280;70931;48.796;8.440;2023-08-07T05:06:08;97283.31;;;12.02;75.14
81511;BME280;70931;48.796;8.440;2023-08-07T05:08:33;97239.41;;;11.74;74.74
81511;BME280;70931;48.796;8.440;2023-08-07T05:10:58;97265.97;;;11.98;74.94
81511;BME280;70931;48.796;8.440;2023-08-07T05:13:23;97276.47;;;11.77;74.29
81511;BME280;70931;48.796;8.440;2023-08-07T05:15:48;97264.56;;;11.88;75.27
81511;BME280;70931;48.796;8.440;2023-08-07T05:18:14;97290.09;;;11.90;74.78
81511;BME280;70931;48.796;8.440;2023-08-07T05:20:39;97266.69;;;11.92;74.79
81511;BME280;70931;48.796;8.440;2023-08-07T05:23:05;97257.06;;;11.83;75.48
81511;BME280;70931;48.796;8.440;2023-08-07T05:25:30;97262.28;;;11.99;75.44
81511;BME280;70931;48.796;8.440;2023-08-07T05:27:55;97281.03;;;11.91;75.31
81511;BME280;70931;48.796;8.440;2023-08-07T05:30:20;97291.03;;;11.97;75.23
81511;BME280;70931;48.796;8.440;2023-08-07T05:32:46;97284.41;;;11.93;75.11
81511;BME280;70931;48.796;8.440;2023-08-07T05:35:11;97275.63;;;11.99;73.99
81511;BME280;70931;48.796;8.440;2023-08-07T05:37:36;97273.94;;;12.07;74.56
81511;BME280;70931;48.796;8.440;2023-08-07T05:40:02;97283.19;;;12.19;75.62
81511;BME280;70931;48.796;8.440;2023-08-07T05:42:27;97269.91;;;12.11;74.80
81511;BME280;70931;48.796;8.440;2023-08-07T05:44:53;97286.28;;;12.30;74.02
81511;BME280;70931;48.796;8.440;2023-08-07T05:47:18;97291.06;;;12.35;74.79
81511;BME280;70931;48.796;8.440;2023-08-07T05:49:43;97284.00;;;12.42;73.69
81511;BME280;70931;48.796;8.440;2023-08-07T05:52:09;97281.03;;;12.14;74.49
81511;BME280;70931;48.796;8.440;2023-08-07T05:54:34;97292.34;;;12.24;74.64
81511;BME280;70931;48.796;8.440;2023-08-07T05:56:59;97280.22;;;12.36;74.71
81511;BME280;70931;48.796;8.440;2023-08-07T05:59:25;97307.59;;;12.38;73.91
81511;BME280;70931;48.796;8.440;2023-08-07T06:01:51;97302.84;;;12.26;73.54
81511;BME280;70931;48.796;8.440;2023-08-07T06:04:16;97287.81;;;12.25;74.47
81511;BME280;70931;48.796;8.440;2023-08-07T06:06:41;97298.38;;;12.41;73.38
81511;BME280;70931;48.796;8.440;2023-08-07T06:09:07;97362.50;;;12.49;73.64
81511;BME280;70931;48.796;8.440;2023-08-07T06:11:32;97303.56;;;12.42;73.84
81511;BME280;70931;48.796;8.440;2023-08-07T06:13:57;97294.53;;;12.58;74.07
81511;BME280;70931;48.796;8.440;2023-08-07T06:16:23;97318.69;;;12.50;74.17
81511;BME280;70931;48.796;8.440;2023-08-07T06:18:48;97305.13;;;12.51;73.65
81511;BME280;70931;48.796;8.440;2023-08-07T06:21:13;97325.28;;;12.62;73.70
81511;BME280;70931;48.796;8.440;2023-08-07T06:23:38;97301.41;;;12.38;73.97
81511;BME280;70931;48.796;8.440;2023-08-07T06:26:04;97317.38;;;12.46;73.95
81511;BME280;70931;48.796;8.440;2023-08-07T06:28:29;97302.28;;;12.53;73.78
81511;BME280;70931;48.796;8.440;2023-08-07T06:31:04;97304.88;;;12.61;73.20
81511;BME280;70931;48.796;8.440;2023-08-07T06:33:29;97297.59;;;12.55;74.13
81511;BME280;70931;48.796;8.440;2023-08-07T06:35:55;97300.47;;;12.68;74.21
81511;BME280;70931;48.796;8.440;2023-08-07T06:38:20;97312.63;;;12.56;74.44
81511;BME280;70931;48.796;8.440;2023-08-07T06:40:45;97271.28;;;12.44;73.55
81511;BME280;70931;48.796;8.440;2023-08-07T06:43:10;97299.72;;;12.74;73.84
81511;BME280;70931;48.796;8.440;2023-08-07T06:45:35;97325.44;;;12.61;74.11
81511;BME280;70931;48.796;8.440;2023-08-07T06:48:01;97303.44;;;12.73;73.97
81511;BME280;70931;48.796;8.440;2023-08-07T06:50:26;97293.09;;;12.70;73.99
81511;BME280;70931;48.796;8.440;2023-08-07T06:52:51;97314.53;;;12.99;73.88
81511;BME280;70931;48.796;8.440;2023-08-07T06:55:16;97281.38;;;12.71;73.84
81511;BME280;70931;48.796;8.440;2023-08-07T06:57:42;97338.06;;;12.89;74.06
81511;BME280;70931;48.796;8.440;2023-08-07T07:00:07;97333.56;;;13.04;73.33
81511;BME280;70931;48.796;8.440;2023-08-07T07:02:33;97338.63;;;12.99;74.86
81511;BME280;70931;48.796;8.440;2023-08-07T07:04:58;97342.69;;;12.95;73.71
81511;BME280;70931;48.796;8.440;2023-08-07T07:07:23;97332.44;;;12.84;73.80
81511;BME280;70931;48.796;8.440;2023-08-07T07:09:48;97348.13;;;12.87;73.68
81511;BME280;70931;48.796;8.440;2023-08-07T07:12:13;97354.34;;;12.65;73.91
81511;BME280;70931;48.796;8.440;2023-08-07T07:14:39;97347.84;;;12.82;73.91
81511;BME280;70931;48.796;8.440;2023-08-07T07:17:04;97344.63;;;13.01;73.40
81511;BME280;70931;48.796;8.440;2023-08-07T07:19:29;97350.00;;;13.01;72.46
81511;BME280;70931;48.796;8.440;2023-08-07T07:21:54;97347.63;;;13.36;71.07
81511;BME280;70931;48.796;8.440;2023-08-07T07:24:20;97358.06;;;13.45;72.06
81511;BME280;70931;48.796;8.440;2023-08-07T07:26:45;97350.41;;;13.42;70.58
81511;BME280;70931;48.796;8.440;2023-08-07T07:29:10;97348.34;;;13.59;69.99
81511;BME280;70931;48.796;8.440;2023-08-07T07:31:36;97339.22;;;13.53;71.00
81511;BME280;70931;48.796;8.440;2023-08-07T07:34:01;97343.47;;;13.62;70.45
81511;BME280;70931;48.796;8.440;2023-08-07T07:36:27;97344.94;;;13.65;68.09
81511;BME280;70931;48.796;8.440;2023-08-07T07:38:52;97356.50;;;13.51;69.03
81511;BME280;70931;48.796;8.440;2023-08-07T07:41:17;97355.56;;;13.44;69.18
81511;BME280;70931;48.796;8.440;2023-08-07T07:43:46;97359.34;;;13.35;70.58
81511;BME280;70931;48.796;8.440;2023-08-07T07:46:11;97358.44;;;13.42;70.08
81511;BME280;70931;48.796;8.440;2023-08-07T07:48:36;97359.66;;;13.40;68.42
81511;BME280;70931;48.796;8.440;2023-08-07T07:51:02;97355.66;;;13.50;68.39
81511;BME280;70931;48.796;8.440;2023-08-07T07:53:28;97370.69;;;13.66;68.63
81511;BME280;70931;48.796;8.440;2023-08-07T07:55:54;97368.84;;;13.66;67.59
81511;BME280;70931;48.796;8.440;2023-08-07T07:58:20;97346.25;;;13.90;64.94
81511;BME280;70931;48.796;8.440;2023-08-07T08:00:46;97357.66;;;14.13;66.20
81511;BME280;70931;48.796;8.440;2023-08-07T08:03:11;97356.38;;;14.09;67.26
81511;BME280;70931;48.796;8.440;2023-08-07T08:05:36;97367.84;;;13.67;67.25
81511;BME280;70931;48.796;8.440;2023-08-07T08:08:02;97374.19;;;13.81;67.24
81511;BME280;70931;48.796;8.440;2023-08-07T08:10:27;97349.97;;;13.89;66.23
81511;BME280;70931;48.796;8.440;2023-08-07T08:12:55;97383.81;;;13.90;65.69
81511;BME280;70931;48.796;8.440;2023-08-07T08:15:20;97323.25;;;13.45;65.61
81511;BME280;70931;48.796;8.440;2023-08-07T08:17:45;97379.66;;;13.88;65.04
81511;BME280;70931;48.796;8.440;2023-08-07T08:20:11;97374.28;;;14.23;61.96
81511;BME280;70931;48.796;8.440;2023-08-07T08:22:36;97393.63;;;14.34;61.43
81511;BME280;70931;48.796;8.440;2023-08-07T08:25:01;97399.13;;;14.68;62.13
81511;BME280;70931;48.796;8.440;2023-08-07T08:27:26;97380.84;;;14.21;60.28
81511;BME280;70931;48.796;8.440;2023-08-07T08:29:52;97293.94;;;13.94;59.15
81511;BME280;70931;48.796;8.440;2023-08-07T08:32:17;97383.38;;;14.22;61.00
81511;BME280;70931;48.796;8.440;2023-08-07T08:34:42;97392.59;;;14.77;58.61
81511;BME280;70931;48.796;8.440;2023-08-07T08:37:07;97384.50;;;14.98;59.49
81511;BME280;70931;48.796;8.440;2023-08-07T08:39:32;97382.69;;;15.26;59.35
81511;BME280;70931;48.796;8.440;2023-08-07T08:41:59;97388.94;;;15.06;58.53
81511;BME280;70931;48.796;8.440;2023-08-07T08:44:24;97399.53;;;15.14;58.04
81511;BME280;70931;48.796;8.440;2023-08-07T08:46:51;97395.41;;;15.46;57.38
81511;BME280;70931;48.796;8.440;2023-08-07T08:49:22;97388.34;;;15.45;56.65
81511;BME280;70931;48.796;8.440;2023-08-07T08:51:49;97381.03;;;15.60;54.62
81511;BME280;70931;48.796;8.440;2023-08-07T08:54:15;97379.75;;;15.90;55.09
81511;BME280;70931;48.796;8.440;2023-08-07T08:56:41;97385.69;;;15.45;55.39
81511;BME280;70931;48.796;8.440;2023-08-07T08:59:07;97392.16;;;15.91;54.51
81511;BME280;70931;48.796;8.440;2023-08-07T09:01:32;97388.28;;;15.59;56.25
81511;BME280;70931;48.796;8.440;2023-08-07T09:03:58;97394.72;;;15.65;55.74
81511;BME280;70931;48.796;8.440;2023-08-07T09:06:25;97379.47;;;15.78;55.16
81511;BME280;70931;48.796;8.440;2023-08-07T09:08:52;97400.75;;;15.73;54.01
81511;BME280;70931;48.796;8.440;2023-08-07T09:11:19;97389.47;;;15.91;52.93
81511;BME280;70931;48.796;8.440;2023-08-07T09:13:45;97408.25;;;15.78;53.68
81511;BME280;70931;48.796;8.440;2023-08-07T09:16:12;97391.56;;;16.49;53.43
81511;BME280;70931;48.796;8.440;2023-08-07T09:18:38;97396.66;;;16.31;54.54
81511;BME280;70931;48.796;8.440;2023-08-07T09:21:03;97418.63;;;15.81;55.41
81511;BME280;70931;48.796;8.440;2023-08-07T09:23:28;97394.81;;;15.78;55.02
81511;BME280;70931;48.796;8.440;2023-08-07T09:26:04;97424.38;;;15.78;55.09
81511;BME280;70931;48.796;8.440;2023-08-07T09:28:29;97407.19;;;15.45;55.10
81511;BME280;70931;48.796;8.440;2023-08-07T09:30:55;97406.56;;;15.77;56.43
81511;BME280;70931;48.796;8.440;2023-08-07T09:33:28;97379.25;;;15.73;55.32
81511;BME280;70931;48.796;8.440;2023-08-07T09:35:57;97414.81;;;15.69;56.96
81511;BME280;70931;48.796;8.440;2023-08-07T09:38:23;97407.63;;;16.23;53.85
81511;BME280;70931;48.796;8.440;2023-08-07T09:40:48;97410.09;;;16.25;54.27
81511;BME280;70931;48.796;8.440;2023-08-07T09:43:20;97418.47;;;16.49;53.74
81511;BME280;70931;48.796;8.440;2023-08-07T09:45:46;97411.28;;;16.09;54.05
81511;BME280;70931;48.796;8.440;2023-08-07T09:48:11;97390.09;;;15.86;54.12
81511;BME280;70931;48.796;8.440;2023-08-07T09:50:36;97409.97;;;15.92;54.95
81511;BME280;70931;48.796;8.440;2023-08-07T09:53:02;97409.59;;;15.61;56.27
81511;BME280;70931;48.796;8.440;2023-08-07T09:55:27;97386.66;;;15.65;57.30
81511;BME280;70931;48.796;8.440;2023-08-07T09:57:53;97429.84;;;15.35;57.18
81511;BME280;70931;48.796;8.440;2023-08-07T10:00:18;97417.66;;;15.61;55.55
81511;BME280;70931;48.796;8.440;2023-08-07T10:02:44;97395.75;;;15.64;57.37
81511;BME280;70931;48.796;8.440;2023-08-07T10:05:10;97412.75;;;15.71;57.81
81511;BME280;70931;48.796;8.440;2023-08-07T10:07:39;97418.34;;;15.76;59.70
81511;BME280;70931;48.796;8.440;2023-08-07T10:10:06;97415.31;;;15.51;55.54
81511;BME280;70931;48.796;8.440;2023-08-07T10:12:32;97417.25;;;15.36;57.51
81511;BME280;70931;48.796;8.440;2023-08-07T10:14:59;97424.44;;;15.29;57.97
81511;BME280;70931;48.796;8.440;2023-08-07T10:17:25;97416.56;;;15.49;56.71
81511;BME280;70931;48.796;8.440;2023-08-07T10:19:51;97407.03;;;15.87;56.72
81511;BME280;70931;48.796;8.440;2023-08-07T10:22:18;97421.59;;;15.99;56.28
81511;BME280;70931;48.796;8.440;2023-08-07T10:24:49;97410.19;;;15.97;56.30
81511;BME280;70931;48.796;8.440;2023-08-07T10:27:16;97419.16;;;15.70;56.70
81511;BME280;70931;48.796;8.440;2023-08-07T10:29:46;97443.66;;;15.54;57.38
81511;BME280;70931;48.796;8.440;2023-08-07T10:32:13;97424.91;;;16.01;54.62
81511;BME280;70931;48.796;8.440;2023-08-07T10:34:39;97408.53;;;16.50;53.07
81511;BME280;70931;48.796;8.440;2023-08-07T10:37:07;97410.28;;;17.23;52.00
81511;BME280;70931;48.796;8.440;2023-08-07T10:39:33;97403.59;;;17.72;51.42
81511;BME280;70931;48.796;8.440;2023-08-07T10:41:58;97401.66;;;17.98;50.58
81511;BME280;70931;48.796;8.440;2023-08-07T10:44:25;97401.22;;;18.08;49.56
81511;BME280;70931;48.796;8.440;2023-08-07T10:46:53;97302.59;;;17.68;48.17
81511;BME280;70931;48.796;8.440;2023-08-07T10:49:40;97416.31;;;18.22;50.82
81511;BME280;70931;48.796;8.440;2023-08-07T10:52:13;97407.31;;;17.90;50.66
81511;BME280;70931;48.796;8.440;2023-08-07T10:54:49;97413.09;;;17.94;51.57
81511;BME280;70931;48.796;8.440;2023-08-07T10:57:16;97408.19;;;17.64;49.57
81511;BME280;70931;48.796;8.440;2023-08-07T11:00:01;97417.94;;;17.52;52.38
81511;BME280;70931;48.796;8.440;2023-08-07T11:02:29;97416.91;;;17.14;51.43
81511;BME280;70931;48.796;8.440;2023-08-07T11:04:55;97424.38;;;16.92;51.14
81511;BME280;70931;48.796;8.440;2023-08-07T11:07:26;97407.78;;;16.89;52.50
81511;BME280;70931;48.796;8.440;2023-08-07T11:09:51;97407.16;;;17.00;55.05
81511;BME280;70931;48.796;8.440;2023-08-07T11:12:16;97399.91;;;17.20;51.21
81511;BME280;70931;48.796;8.440;2023-08-07T11:14:42;97409.03;;;17.58;49.86
81511;BME280;70931;48.796;8.440;2023-08-07T11:17:07;97416.94;;;17.27;51.25
81511;BME280;70931;48.796;8.440;2023-08-07T11:19:33;97381.66;;;16.63;51.40
81511;BME280;70931;48.796;8.440;2023-08-07T11:21:58;97416.69;;;16.70;52.12
81511;BME280;70931;48.796;8.440;2023-08-07T11:24:26;97429.28;;;16.63;54.24
81511;BME280;70931;48.796;8.440;2023-08-07T11:26:52;97427.22;;;16.11;54.41
81511;BME280;70931;48.796;8.440;2023-08-07T11:29:18;97445.22;;;16.10;57.23
81511;BME280;70931;48.796;8.440;2023-08-07T11:31:43;97443.94;;;16.00;56.25
81511;BME280;70931;48.796;8.440;2023-08-07T11:34:10;97444.91;;;16.26;53.88
81511;BME280;70931;48.796;8.440;2023-08-07T11:36:45;97427.28;;;16.84;53.46
81511;BME280;70931;48.796;8.440;2023-08-07T11:39:11;97435.56;;;17.09;51.90
81511;BME280;70931;48.796;8.440;2023-08-07T11:41:37;97423.75;;;17.62;51.73
81511;BME280;70931;48.796;8.440;2023-08-07T11:44:02;97416.44;;;17.83;51.90
81511;BME280;70931;48.796;8.440;2023-08-07T11:46:28;97415.41;;;17.84;51.62
81511;BME280;70931;48.796;8.440;2023-08-07T11:48:53;97429.78;;;17.58;51.32
81511;BME280;70931;48.796;8.440;2023-08-07T11:51:19;97410.91;;;17.25;51.27
81511;BME280;70931;48.796;8.440;2023-08-07T11:53:45;97437.22;;;17.03;55.04
81511;BME280;70931;48.796;8.440;2023-08-07T11:56:11;97434.28;;;16.66;55.85
81511;BME280;70931;48.796;8.440;2023-08-07T11:58:42;97442.38;;;16.18;54.54
81511;BME280;70931;48.796;8.440;2023-08-07T12:01:12;97433.75;;;16.42;54.72
81511;BME280;70931;48.796;8.440;2023-08-07T12:03:42;97451.66;;;16.63;54.90
81511;BME280;70931;48.796;8.440;2023-08-07T12:06:08;97467.34;;;16.46;56.98
81511;BME280;70931;48.796;8.440;2023-08-07T12:08:39;97447.41;;;16.34;54.91
81511;BME280;70931;48.796;8.440;2023-08-07T12:11:06;97441.38;;;17.06;54.27
81511;BME280;70931;48.796;8.440;2023-08-07T12:13:32;97451.13;;;17.59;52.53
81511;BME280;70931;48.796;8.440;2023-08-07T12:15:57;97436.38;;;19.15;50.77
81511;BME280;70931;48.796;8.440;2023-08-07T12:18:26;97426.09;;;19.73;48.44
81511;BME280;70931;48.796;8.440;2023-08-07T12:20:52;97427.38;;;19.21;47.81
81511;BME280;70931;48.796;8.440;2023-08-07T12:23:20;97424.59;;;18.34;48.52
81511;BME280;70931;48.796;8.440;2023-08-07T12:25:46;97437.19;;;18.53;48.92
81511;BME280;70931;48.796;8.440;2023-08-07T12:28:11;97401.13;;;19.28;46.17
81511;BME280;70931;48.796;8.440;2023-08-07T12:30:37;97443.84;;;19.44;47.82
81511;BME280;70931;48.796;8.440;2023-08-07T12:33:03;97444.31;;;18.78;48.29
81511;BME280;70931;48.796;8.440;2023-08-07T12:35:28;97442.31;;;18.67;50.49
81511;BME280;70931;48.796;8.440;2023-08-07T12:37:54;97436.03;;;18.73;48.94
81511;BME280;70931;48.796;8.440;2023-08-07T12:40:19;97441.06;;;19.75;48.63
81511;BME280;70931;48.796;8.440;2023-08-07T12:42:44;97470.75;;;19.32;47.63
81511;BME280;70931;48.796;8.440;2023-08-07T12:45:10;97443.59;;;19.21;47.61
81511;BME280;70931;48.796;8.440;2023-08-07T12:47:35;97445.28;;;19.47;47.70
81511;BME280;70931;48.796;8.440;2023-08-07T12:50:00;97433.28;;;19.43;49.05
81511;BME280;70931;48.796;8.440;2023-08-07T12:52:25;97438.78;;;19.54;46.72
81511;BME280;70931;48.796;8.440;2023-08-07T12:54:51;97434.09;;;19.12;48.79
81511;BME280;70931;48.796;8.440;2023-08-07T12:57:16;97440.72;;;18.47;49.03
81511;BME280;70931;48.796;8.440;2023-08-07T12:59:41;97463.53;;;18.57;49.20